sensor_id;sensor_type;location;lat;lon;timestamp;P1;durP1;ratioP1;P2;durP2;ratioP2
980;SDS011;479;53.514;9.994;2023-08-06T00:00:56;5.40;;;4.90;;
980;SDS011;479;53.514;9.994;2023-08-06T00:03:24;4.10;;;3.70;;
980;SDS011;479;53.514;9.994;2023-08-06T00:05:51;9.00;;;6.07;;
980;SDS011;479;53.514;9.994;2023-08-06T00:08:18;4.60;;;4.17;;
980;SDS011;479;53.514;9.994;2023-08-06T00:10:47;5.60;;;3.57;;
980;SDS011;479;53.514;9.994;2023-08-06T00:13:13;4.43;;;3.60;;
980;SDS011;479;53.514;9.994;2023-08-06T00:15:40;4.83;;;4.23;;
980;SDS011;479;53.514;9.994;2023-08-06T00:18:07;5.43;;;4.23;;
980;SDS011;479;53.514;9.994;2023-08-06T00:20:35;4.47;;;3.93;;
980;SDS011;479;53.514;9.994;2023-08-06T00:23:05;5.23;;;4.73;;
980;SDS011;479;53.514;9.994;2023-08-06T00:25:32;4.80;;;4.30;;
980;SDS011;479;53.514;9.994;2023-08-06T00:27:59;3.87;;;3.57;;
980;SDS011;479;53.514;9.994;2023-08-06T00:30:25;4.03;;;3.67;;
980;SDS011;479;53.514;9.994;2023-08-06T00:32:52;4.43;;;4.03;;
980;SDS011;479;53.514;9.994;2023-08-06T00:35:19;4.30;;;3.87;;
980;SDS011;479;53.514;9.994;2023-08-06T00:37:47;5.20;;;4.33;;
980;SDS011;479;53.514;9.994;2023-08-06T00:40:14;4.37;;;3.70;;
980;SDS011;479;53.514;9.994;2023-08-06T00:42:41;13.40;;;8.70;;
980;SDS011;479;53.514;9.994;2023-08-06T00:45:10;4.93;;;4.40;;
980;SDS011;479;53.514;9.994;2023-08-06T00:47:37;4.40;;;4.00;;
980;SDS011;479;53.514;9.994;2023-08-06T00:50:05;4.93;;;4.43;;
980;SDS011;479;53.514;9.994;2023-08-06T00:52:33;5.10;;;4.60;;
980;SDS011;479;53.514;9.994;2023-08-06T00:55:02;4.70;;;4.27;;
980;SDS011;479;53.514;9.994;2023-08-06T00:57:29;5.80;;;5.30;;
980;SDS011;479;53.514;9.994;2023-08-06T00:59:56;5.27;;;4.87;;
980;SDS011;479;53.514;9.994;2023-08-06T01:02:23;4.70;;;4.20;;
980;SDS011;479;53.514;9.994;2023-08-06T01:04:50;4.23;;;3.90;;
980;SDS011;479;53.514;9.994;2023-08-06T01:07:19;4.13;;;3.53;;
980;SDS011;479;53.514;9.994;2023-08-06T01:09:56;4.43;;;4.10;;
980;SDS011;479;53.514;9.994;2023-08-06T01:12:37;4.40;;;4.00;;
980;SDS011;479;53.514;9.994;2023-08-06T01:15:11;4.30;;;3.77;;
980;SDS011;479;53.514;9.994;2023-08-06T01:17:43;4.00;;;3.70;;
980;SDS011;479;53.514;9.994;2023-08-06T01:20:11;4.43;;;4.03;;
980;SDS011;479;53.514;9.994;2023-08-06T01:22:40;4.53;;;4.13;;
980;SDS011;479;53.514;9.994;2023-08-06T01:25:07;3.60;;;3.33;;
980;SDS011;479;53.514;9.994;2023-08-06T01:27:37;3.60;;;3.30;;
980;SDS011;479;53.514;9.994;2023-08-06T01:30:17;4.10;;;3.50;;
980;SDS011;479;53.514;9.994;2023-08-06T01:32:54;4.77;;;4.23;;
980;SDS011;479;53.514;9.994;2023-08-06T01:35:26;9.33;;;4.97;;
980;SDS011;479;53.514;9.994;2023-08-06T01:37:58;4.67;;;3.93;;
980;SDS011;479;53.514;9.994;2023-08-06T01:40:27;3.10;;;2.90;;
980;SDS011;479;53.514;9.994;2023-08-06T01:42:55;4.63;;;3.60;;
980;SDS011;479;53.514;9.994;2023-08-06T01:45:22;3.53;;;3.23;;
980;SDS011;479;53.514;9.994;2023-08-06T01:47:49;4.03;;;3.60;;
980;SDS011;479;53.514;9.994;2023-08-06T01:50:16;7.00;;;3.60;;
980;SDS011;479;53.514;9.994;2023-08-06T01:52:44;4.70;;;3.67;;
980;SDS011;479;53.514;9.994;2023-08-06T01:55:14;8.50;;;3.77;;
980;SDS011;479;53.514;9.994;2023-08-06T01:57:41;4.27;;;3.97;;
980;SDS011;479;53.514;9.994;2023-08-06T02:00:08;3.90;;;3.60;;
980;SDS011;479;53.514;9.994;2023-08-06T02:02:38;4.57;;;3.70;;
980;SDS011;479;53.514;9.994;2023-08-06T02:05:06;4.33;;;3.93;;
980;SDS011;479;53.514;9.994;2023-08-06T02:07:33;4.60;;;3.23;;
980;SDS011;479;53.514;9.994;2023-08-06T02:10:00;4.13;;;3.60;;
980;SDS011;479;53.514;9.994;2023-08-06T02:12:28;5.60;;;4.63;;
980;SDS011;479;53.514;9.994;2023-08-06T02:14:55;4.60;;;4.23;;
980;SDS011;479;53.514;9.994;2023-08-06T02:17:22;4.70;;;4.30;;
980;SDS011;479;53.514;9.994;2023-08-06T02:19:49;5.43;;;3.50;;
980;SDS011;479;53.514;9.994;2023-08-06T02:22:15;7.70;;;3.83;;
980;SDS011;479;53.514;9.994;2023-08-06T02:24:42;4.63;;;3.40;;
980;SDS011;479;53.514;9.994;2023-08-06T02:27:09;5.43;;;3.27;;
980;SDS011;479;53.514;9.994;2023-08-06T02:29:37;4.53;;;3.80;;
980;SDS011;479;53.514;9.994;2023-08-06T02:32:06;4.17;;;3.87;;
980;SDS011;479;53.514;9.994;2023-08-06T02:34:33;4.73;;;4.20;;
980;SDS011;479;53.514;9.994;2023-08-06T02:37:00;5.33;;;4.70;;
980;SDS011;479;53.514;9.994;2023-08-06T02:39:27;5.33;;;4.90;;
980;SDS011;479;53.514;9.994;2023-08-06T02:41:54;5.67;;;4.67;;
980;SDS011;479;53.514;9.994;2023-08-06T02:44:21;5.77;;;4.43;;
980;SDS011;479;53.514;9.994;2023-08-06T02:46:50;5.20;;;4.60;;
980;SDS011;479;53.514;9.994;2023-08-06T02:49:17;5.70;;;5.20;;
980;SDS011;479;53.514;9.994;2023-08-06T02:51:44;7.17;;;5.30;;
980;SDS011;479;53.514;9.994;2023-08-06T02:54:11;5.60;;;5.10;;
980;SDS011;479;53.514;9.994;2023-08-06T02:56:38;6.07;;;4.80;;
980;SDS011;479;53.514;9.994;2023-08-06T02:59:15;5.40;;;4.90;;
980;SDS011;479;53.514;9.994;2023-08-06T03:01:57;5.30;;;4.80;;
980;SDS011;479;53.514;9.994;2023-08-06T03:04:33;5.90;;;5.30;;
980;SDS011;479;53.514;9.994;2023-08-06T03:07:00;5.50;;;5.00;;
980;SDS011;479;53.514;9.994;2023-08-06T03:09:35;5.87;;;5.33;;
980;SDS011;479;53.514;9.994;2023-08-06T03:12:02;4.50;;;4.10;;
980;SDS011;479;53.514;9.994;2023-08-06T03:14:31;5.57;;;5.07;;
980;SDS011;479;53.514;9.994;2023-08-06T03:16:59;5.87;;;5.27;;
980;SDS011;479;53.514;9.994;2023-08-06T03:19:26;5.77;;;5.27;;
980;SDS011;479;53.514;9.994;2023-08-06T03:21:54;5.57;;;4.97;;
980;SDS011;479;53.514;9.994;2023-08-06T03:24:21;4.57;;;4.17;;
980;SDS011;479;53.514;9.994;2023-08-06T03:26:48;5.83;;;4.83;;
980;SDS011;479;53.514;9.994;2023-08-06T03:29:15;6.10;;;4.90;;
980;SDS011;479;53.514;9.994;2023-08-06T03:31:43;6.17;;;4.63;;
980;SDS011;479;53.514;9.994;2023-08-06T03:34:14;5.37;;;4.87;;
980;SDS011;479;53.514;9.994;2023-08-06T03:36:41;5.80;;;4.97;;
980;SDS011;479;53.514;9.994;2023-08-06T03:39:08;5.63;;;4.70;;
980;SDS011;479;53.514;9.994;2023-08-06T03:41:35;5.27;;;4.87;;
980;SDS011;479;53.514;9.994;2023-08-06T03:44:02;6.07;;;4.30;;
980;SDS011;479;53.514;9.994;2023-08-06T03:46:30;5.20;;;4.63;;
980;SDS011;479;53.514;9.994;2023-08-06T03:48:59;6.67;;;4.53;;
980;SDS011;479;53.514;9.994;2023-08-06T03:51:28;5.80;;;4.13;;
980;SDS011;479;53.514;9.994;2023-08-06T03:53:55;4.67;;;3.93;;
980;SDS011;479;53.514;9.994;2023-08-06T03:56:22;4.73;;;4.33;;
980;SDS011;479;53.514;9.994;2023-08-06T03:58:49;5.10;;;4.70;;
980;SDS011;479;53.514;9.994;2023-08-06T04:01:16;8.60;;;5.37;;
980;SDS011;479;53.514;9.994;2023-08-06T04:03:44;4.70;;;3.67;;
980;SDS011;479;53.514;9.994;2023-08-06T04:06:12;5.03;;;4.43;;
980;SDS011;479;53.514;9.994;2023-08-06T04:08:40;4.60;;;4.20;;
980;SDS011;479;53.514;9.994;2023-08-06T04:11:07;4.60;;;4.20;;
980;SDS011;479;53.514;9.994;2023-08-06T04:13:34;4.40;;;4.00;;
980;SDS011;479;53.514;9.994;2023-08-06T04:16:01;4.67;;;4.27;;
980;SDS011;479;53.514;9.994;2023-08-06T04:18:29;4.80;;;4.40;;
980;SDS011;479;53.514;9.994;2023-08-06T04:20:56;4.10;;;3.63;;
980;SDS011;479;53.514;9.994;2023-08-06T04:23:24;5.90;;;4.57;;
980;SDS011;479;53.514;9.994;2023-08-06T04:25:57;5.93;;;3.87;;
980;SDS011;479;53.514;9.994;2023-08-06T04:28:28;4.30;;;3.77;;
980;SDS011;479;53.514;9.994;2023-08-06T04:30:55;5.20;;;4.20;;
980;SDS011;479;53.514;9.994;2023-08-06T04:33:22;4.63;;;4.23;;
980;SDS011;479;53.514;9.994;2023-08-06T04:35:53;5.70;;;4.23;;
980;SDS011;479;53.514;9.994;2023-08-06T04:38:22;10.50;;;3.90;;
980;SDS011;479;53.514;9.994;2023-08-06T04:40:49;5.10;;;4.40;;
980;SDS011;479;53.514;9.994;2023-08-06T04:43:18;4.70;;;4.23;;
980;SDS011;479;53.514;9.994;2023-08-06T04:45:45;5.30;;;4.00;;
980;SDS011;479;53.514;9.994;2023-08-06T04:48:13;13.10;;;9.20;;
980;SDS011;479;53.514;9.994;2023-08-06T04:50:42;4.53;;;4.13;;
980;SDS011;479;53.514;9.994;2023-08-06T04:53:10;4.57;;;4.17;;
980;SDS011;479;53.514;9.994;2023-08-06T04:55:37;10.20;;;5.30;;
980;SDS011;479;53.514;9.994;2023-08-06T04:58:04;7.83;;;5.03;;
980;SDS011;479;53.514;9.994;2023-08-06T05:00:32;4.90;;;4.50;;
980;SDS011;479;53.514;9.994;2023-08-06T05:03:00;4.40;;;4.00;;
980;SDS011;479;53.514;9.994;2023-08-06T05:05:27;6.23;;;3.80;;
980;SDS011;479;53.514;9.994;2023-08-06T05:07:54;4.13;;;3.73;;
980;SDS011;479;53.514;9.994;2023-08-06T05:10:23;5.53;;;4.67;;
980;SDS011;479;53.514;9.994;2023-08-06T05:12:51;6.40;;;5.23;;
980;SDS011;479;53.514;9.994;2023-08-06T05:15:18;6.43;;;4.27;;
980;SDS011;479;53.514;9.994;2023-08-06T05:17:46;5.00;;;4.50;;
980;SDS011;479;53.514;9.994;2023-08-06T05:20:13;4.77;;;4.13;;
980;SDS011;479;53.514;9.994;2023-08-06T05:22:40;4.67;;;4.10;;
980;SDS011;479;53.514;9.994;2023-08-06T05:25:07;4.80;;;4.40;;
980;SDS011;479;53.514;9.994;2023-08-06T05:27:34;5.30;;;3.80;;
980;SDS011;479;53.514;9.994;2023-08-06T05:30:01;4.93;;;4.53;;
980;SDS011;479;53.514;9.994;2023-08-06T05:32:28;5.37;;;4.87;;
980;SDS011;479;53.514;9.994;2023-08-06T05:34:56;7.27;;;4.73;;
980;SDS011;479;53.514;9.994;2023-08-06T05:37:23;7.60;;;4.87;;
980;SDS011;479;53.514;9.994;2023-08-06T05:39:50;5.20;;;4.47;;
980;SDS011;479;53.514;9.994;2023-08-06T05:42:17;5.60;;;4.87;;
980;SDS011;479;53.514;9.994;2023-08-06T05:44:43;4.50;;;4.10;;
980;SDS011;479;53.514;9.994;2023-08-06T05:47:10;5.80;;;4.77;;
980;SDS011;479;53.514;9.994;2023-08-06T05:49:37;4.70;;;4.10;;
980;SDS011;479;53.514;9.994;2023-08-06T05:52:06;4.43;;;3.70;;
980;SDS011;479;53.514;9.994;2023-08-06T05:54:33;4.67;;;4.23;;
980;SDS011;479;53.514;9.994;2023-08-06T05:57:00;5.00;;;4.60;;
980;SDS011;479;53.514;9.994;2023-08-06T05:59:27;4.20;;;3.83;;
980;SDS011;479;53.514;9.994;2023-08-06T06:01:54;5.23;;;4.53;;
980;SDS011;479;53.514;9.994;2023-08-06T06:04:21;5.33;;;4.67;;
980;SDS011;479;53.514;9.994;2023-08-06T06:06:47;4.30;;;3.90;;
980;SDS011;479;53.514;9.994;2023-08-06T06:09:16;4.07;;;3.63;;
980;SDS011;479;53.514;9.994;2023-08-06T06:11:42;6.07;;;4.90;;
980;SDS011;479;53.514;9.994;2023-08-06T06:14:09;6.03;;;4.47;;
980;SDS011;479;53.514;9.994;2023-08-06T06:16:36;4.23;;;3.93;;
980;SDS011;479;53.514;9.994;2023-08-06T06:19:03;4.50;;;4.10;;
980;SDS011;479;53.514;9.994;2023-08-06T06:21:30;4.60;;;4.20;;
980;SDS011;479;53.514;9.994;2023-08-06T06:23:57;5.57;;;4.40;;
980;SDS011;479;53.514;9.994;2023-08-06T06:26:25;5.20;;;4.30;;
980;SDS011;479;53.514;9.994;2023-08-06T06:28:52;4.23;;;3.87;;
980;SDS011;479;53.514;9.994;2023-08-06T06:31:19;5.60;;;4.33;;
980;SDS011;479;53.514;9.994;2023-08-06T06:33:46;5.27;;;4.77;;
980;SDS011;479;53.514;9.994;2023-08-06T06:36:13;5.50;;;4.37;;
980;SDS011;479;53.514;9.994;2023-08-06T06:38:40;4.73;;;4.33;;
980;SDS011;479;53.514;9.994;2023-08-06T06:41:07;4.93;;;4.53;;
980;SDS011;479;53.514;9.994;2023-08-06T06:43:35;5.33;;;4.57;;
980;SDS011;479;53.514;9.994;2023-08-06T06:46:02;5.13;;;4.13;;
980;SDS011;479;53.514;9.994;2023-08-06T06:48:32;5.00;;;4.00;;
980;SDS011;479;53.514;9.994;2023-08-06T06:50:59;8.63;;;6.50;;
980;SDS011;479;53.514;9.994;2023-08-06T06:53:26;5.60;;;5.10;;
980;SDS011;479;53.514;9.994;2023-08-06T06:55:53;5.10;;;4.60;;
980;SDS011;479;53.514;9.994;2023-08-06T06:58:20;6.20;;;5.60;;
980;SDS011;479;53.514;9.994;2023-08-06T07:00:49;6.17;;;4.63;;
980;SDS011;479;53.514;9.994;2023-08-06T07:03:16;6.87;;;5.40;;
980;SDS011;479;53.514;9.994;2023-08-06T07:05:43;5.17;;;4.53;;
980;SDS011;479;53.514;9.994;2023-08-06T07:08:11;4.97;;;4.47;;
980;SDS011;479;53.514;9.994;2023-08-06T07:10:38;5.07;;;4.57;;
980;SDS011;479;53.514;9.994;2023-08-06T07:13:06;5.50;;;5.00;;
980;SDS011;479;53.514;9.994;2023-08-06T07:15:33;6.30;;;4.43;;
980;SDS011;479;53.514;9.994;2023-08-06T07:18:02;5.10;;;4.50;;
980;SDS011;479;53.514;9.994;2023-08-06T07:20:29;6.23;;;5.60;;
980;SDS011;479;53.514;9.994;2023-08-06T07:22:58;4.40;;;4.00;;
980;SDS011;479;53.514;9.994;2023-08-06T07:25:25;4.87;;;4.47;;
980;SDS011;479;53.514;9.994;2023-08-06T07:27:51;6.87;;;5.30;;
980;SDS011;479;53.514;9.994;2023-08-06T07:30:18;8.13;;;6.00;;
980;SDS011;479;53.514;9.994;2023-08-06T07:32:45;5.87;;;5.27;;
980;SDS011;479;53.514;9.994;2023-08-06T07:35:14;6.03;;;5.47;;
980;SDS011;479;53.514;9.994;2023-08-06T07:37:41;6.97;;;5.60;;
980;SDS011;479;53.514;9.994;2023-08-06T07:40:08;5.20;;;4.70;;
980;SDS011;479;53.514;9.994;2023-08-06T07:42:35;5.73;;;5.20;;
980;SDS011;479;53.514;9.994;2023-08-06T07:45:02;7.43;;;5.70;;
980;SDS011;479;53.514;9.994;2023-08-06T07:47:30;5.27;;;4.77;;
980;SDS011;479;53.514;9.994;2023-08-06T07:49:56;7.77;;;5.43;;
980;SDS011;479;53.514;9.994;2023-08-06T07:52:25;6.87;;;5.10;;
980;SDS011;479;53.514;9.994;2023-08-06T07:54:52;5.10;;;4.63;;
980;SDS011;479;53.514;9.994;2023-08-06T07:57:19;4.93;;;4.47;;
980;SDS011;479;53.514;9.994;2023-08-06T07:59:46;6.23;;;5.60;;
980;SDS011;479;53.514;9.994;2023-08-06T08:02:13;8.70;;;5.33;;
980;SDS011;479;53.514;9.994;2023-08-06T08:04:39;5.53;;;5.03;;
980;SDS011;479;53.514;9.994;2023-08-06T08:07:06;6.27;;;5.67;;
980;SDS011;479;53.514;9.994;2023-08-06T08:09:37;7.80;;;6.40;;
980;SDS011;479;53.514;9.994;2023-08-06T08:12:04;10.70;;;7.37;;
980;SDS011;479;53.514;9.994;2023-08-06T08:14:31;7.30;;;6.60;;
980;SDS011;479;53.514;9.994;2023-08-06T08:17:00;8.43;;;6.50;;
980;SDS011;479;53.514;9.994;2023-08-06T08:19:28;9.27;;;7.33;;
980;SDS011;479;53.514;9.994;2023-08-06T08:21:55;10.67;;;7.63;;
980;SDS011;479;53.514;9.994;2023-08-06T08:24:22;7.27;;;6.50;;
980;SDS011;479;53.514;9.994;2023-08-06T08:26:51;7.60;;;6.17;;
980;SDS011;479;53.514;9.994;2023-08-06T08:29:18;7.10;;;6.40;;
980;SDS011;479;53.514;9.994;2023-08-06T08:31:46;9.80;;;6.73;;
980;SDS011;479;53.514;9.994;2023-08-06T08:34:14;8.40;;;6.70;;
980;SDS011;479;53.514;9.994;2023-08-06T08:36:41;10.97;;;7.17;;
980;SDS011;479;53.514;9.994;2023-08-06T08:39:08;8.57;;;7.77;;
980;SDS011;479;53.514;9.994;2023-08-06T08:41:37;7.20;;;6.50;;
980;SDS011;479;53.514;9.994;2023-08-06T08:44:05;8.17;;;6.83;;
980;SDS011;479;53.514;9.994;2023-08-06T08:46:35;9.70;;;7.10;;
980;SDS011;479;53.514;9.994;2023-08-06T08:49:03;8.83;;;7.00;;
980;SDS011;479;53.514;9.994;2023-08-06T08:51:32;7.17;;;6.47;;
980;SDS011;479;53.514;9.994;2023-08-06T08:54:00;7.00;;;6.20;;
980;SDS011;479;53.514;9.994;2023-08-06T08:56:29;6.97;;;6.27;;
980;SDS011;479;53.514;9.994;2023-08-06T08:58:57;5.93;;;5.43;;
980;SDS011;479;53.514;9.994;2023-08-06T09:01:25;6.57;;;5.90;;
980;SDS011;479;53.514;9.994;2023-08-06T09:03:53;7.53;;;5.40;;
980;SDS011;479;53.514;9.994;2023-08-06T09:06:21;5.63;;;4.97;;
980;SDS011;479;53.514;9.994;2023-08-06T09:08:50;7.90;;;6.57;;
980;SDS011;479;53.514;9.994;2023-08-06T09:11:22;6.67;;;5.80;;
980;SDS011;479;53.514;9.994;2023-08-06T09:13:51;8.67;;;7.87;;
980;SDS011;479;53.514;9.994;2023-08-06T09:16:20;7.33;;;5.73;;
980;SDS011;479;53.514;9.994;2023-08-06T09:18:48;9.47;;;7.30;;
980;SDS011;479;53.514;9.994;2023-08-06T09:21:16;9.50;;;8.17;;
980;SDS011;479;53.514;9.994;2023-08-06T09:23:43;9.20;;;8.23;;
980;SDS011;479;53.514;9.994;2023-08-06T09:26:13;9.83;;;7.07;;
980;SDS011;479;53.514;9.994;2023-08-06T09:28:40;7.07;;;6.23;;
980;SDS011;479;53.514;9.994;2023-08-06T09:31:39;15.60;;;10.80;;
980;SDS011;479;53.514;9.994;2023-08-06T09:34:14;8.23;;;6.77;;
980;SDS011;479;53.514;9.994;2023-08-06T09:36:46;9.40;;;6.40;;
980;SDS011;479;53.514;9.994;2023-08-06T09:39:16;11.40;;;6.37;;
980;SDS011;479;53.514;9.994;2023-08-06T09:41:44;8.37;;;7.17;;
980;SDS011;479;53.514;9.994;2023-08-06T09:44:16;6.10;;;5.50;;
980;SDS011;479;53.514;9.994;2023-08-06T09:46:49;6.53;;;5.93;;
980;SDS011;479;53.514;9.994;2023-08-06T09:49:19;6.90;;;6.27;;
980;SDS011;479;53.514;9.994;2023-08-06T09:51:47;7.93;;;5.93;;
980;SDS011;479;53.514;9.994;2023-08-06T09:54:16;7.27;;;6.67;;
980;SDS011;479;53.514;9.994;2023-08-06T09:56:44;6.93;;;6.37;;
980;SDS011;479;53.514;9.994;2023-08-06T09:59:11;8.10;;;7.00;;
980;SDS011;479;53.514;9.994;2023-08-06T10:01:38;7.50;;;6.70;;
980;SDS011;479;53.514;9.994;2023-08-06T10:04:05;7.90;;;6.87;;
980;SDS011;479;53.514;9.994;2023-08-06T10:06:35;9.57;;;8.57;;
980;SDS011;479;53.514;9.994;2023-08-06T10:09:02;9.60;;;8.60;;
980;SDS011;479;53.514;9.994;2023-08-06T10:11:30;8.47;;;7.67;;
980;SDS011;479;53.514;9.994;2023-08-06T10:13:58;8.30;;;7.60;;
980;SDS011;479;53.514;9.994;2023-08-06T10:16:30;10.20;;;9.17;;
980;SDS011;479;53.514;9.994;2023-08-06T10:18:58;19.30;;;13.13;;
980;SDS011;479;53.514;9.994;2023-08-06T10:21:25;9.83;;;8.83;;
980;SDS011;479;53.514;9.994;2023-08-06T10:23:56;7.03;;;6.33;;
980;SDS011;479;53.514;9.994;2023-08-06T10:26:29;7.53;;;6.83;;
980;SDS011;479;53.514;9.994;2023-08-06T10:28:56;12.20;;;8.30;;
980;SDS011;479;53.514;9.994;2023-08-06T10:34:24;7.27;;;6.57;;
980;SDS011;479;53.514;9.994;2023-08-06T10:36:53;10.90;;;9.70;;
980;SDS011;479;53.514;9.994;2023-08-06T10:39:22;7.60;;;6.83;;
980;SDS011;479;53.514;9.994;2023-08-06T10:41:50;6.47;;;5.87;;
980;SDS011;479;53.514;9.994;2023-08-06T10:44:17;6.97;;;6.30;;
980;SDS011;479;53.514;9.994;2023-08-06T10:46:45;9.97;;;7.30;;
980;SDS011;479;53.514;9.994;2023-08-06T10:49:16;9.20;;;8.10;;
980;SDS011;479;53.514;9.994;2023-08-06T10:51:47;9.70;;;8.33;;
980;SDS011;479;53.514;9.994;2023-08-06T10:54:14;8.60;;;6.90;;
980;SDS011;479;53.514;9.994;2023-08-06T10:56:43;12.13;;;10.43;;
980;SDS011;479;53.514;9.994;2023-08-06T10:59:14;15.37;;;12.47;;
980;SDS011;479;53.514;9.994;2023-08-06T11:01:42;8.00;;;6.53;;
980;SDS011;479;53.514;9.994;2023-08-06T11:04:09;8.27;;;6.83;;
980;SDS011;479;53.514;9.994;2023-08-06T11:06:42;9.40;;;8.40;;
980;SDS011;479;53.514;9.994;2023-08-06T11:09:09;6.43;;;5.77;;
980;SDS011;479;53.514;9.994;2023-08-06T11:11:37;13.33;;;11.40;;
980;SDS011;479;53.514;9.994;2023-08-06T11:14:05;13.53;;;11.90;;
980;SDS011;479;53.514;9.994;2023-08-06T11:16:32;6.70;;;5.53;;
980;SDS011;479;53.514;9.994;2023-08-06T11:18:59;9.27;;;8.37;;
980;SDS011;479;53.514;9.994;2023-08-06T11:21:26;11.50;;;10.10;;
980;SDS011;479;53.514;9.994;2023-08-06T11:23:54;10.10;;;8.90;;
980;SDS011;479;53.514;9.994;2023-08-06T11:26:22;11.10;;;10.00;;
980;SDS011;479;53.514;9.994;2023-08-06T11:28:49;7.30;;;6.60;;
980;SDS011;479;53.514;9.994;2023-08-06T11:31:21;10.33;;;9.03;;
980;SDS011;479;53.514;9.994;2023-08-06T11:33:49;5.90;;;5.37;;
980;SDS011;479;53.514;9.994;2023-08-06T11:36:16;7.87;;;7.17;;
980;SDS011;479;53.514;9.994;2023-08-06T11:38:54;8.97;;;8.07;;
980;SDS011;479;53.514;9.994;2023-08-06T11:41:21;8.00;;;7.30;;
980;SDS011;479;53.514;9.994;2023-08-06T11:43:48;8.33;;;7.53;;
980;SDS011;479;53.514;9.994;2023-08-06T11:46:16;9.10;;;7.93;;
980;SDS011;479;53.514;9.994;2023-08-06T11:48:53;6.30;;;5.70;;
980;SDS011;479;53.514;9.994;2023-08-06T11:51:22;8.20;;;7.40;;
980;SDS011;479;53.514;9.994;2023-08-06T11:53:51;5.80;;;5.33;;
980;SDS011;479;53.514;9.994;2023-08-06T11:56:20;7.87;;;7.17;;
980;SDS011;479;53.514;9.994;2023-08-06T11:58:47;8.73;;;7.50;;
980;SDS011;479;53.514;9.994;2023-08-06T12:01:14;10.20;;;9.20;;
980;SDS011;479;53.514;9.994;2023-08-06T12:03:41;6.70;;;6.00;;
980;SDS011;479;53.514;9.994;2023-08-06T12:06:09;10.40;;;9.07;;
980;SDS011;479;53.514;9.994;2023-08-06T12:08:36;10.40;;;9.40;;
980;SDS011;479;53.514;9.994;2023-08-06T12:11:04;7.57;;;6.80;;
980;SDS011;479;53.514;9.994;2023-08-06T12:13:33;11.03;;;9.97;;
980;SDS011;479;53.514;9.994;2023-08-06T12:16:00;12.53;;;11.33;;
980;SDS011;479;53.514;9.994;2023-08-06T12:18:27;7.07;;;6.30;;
980;SDS011;479;53.514;9.994;2023-08-06T12:20:54;8.87;;;8.00;;
980;SDS011;479;53.514;9.994;2023-08-06T12:26:29;13.57;;;11.77;;
980;SDS011;479;53.514;9.994;2023-08-06T12:28:56;10.40;;;9.30;;
980;SDS011;479;53.514;9.994;2023-08-06T12:31:23;17.47;;;15.37;;
980;SDS011;479;53.514;9.994;2023-08-06T12:33:50;11.23;;;7.70;;
980;SDS011;479;53.514;9.994;2023-08-06T12:36:17;7.73;;;7.00;;
980;SDS011;479;53.514;9.994;2023-08-06T12:38:44;8.93;;;7.67;;
980;SDS011;479;53.514;9.994;2023-08-06T12:41:12;8.27;;;7.57;;
980;SDS011;479;53.514;9.994;2023-08-06T12:43:39;9.70;;;7.60;;
980;SDS011;479;53.514;9.994;2023-08-06T12:46:06;7.60;;;6.87;;
980;SDS011;479;53.514;9.994;2023-08-06T12:48:33;11.20;;;6.43;;
980;SDS011;479;53.514;9.994;2023-08-06T12:51:00;8.77;;;7.30;;
980;SDS011;479;53.514;9.994;2023-08-06T12:53:27;6.17;;;5.57;;
980;SDS011;479;53.514;9.994;2023-08-06T12:55:53;8.90;;;7.00;;
980;SDS011;479;53.514;9.994;2023-08-06T12:58:22;6.47;;;5.77;;
980;SDS011;479;53.514;9.994;2023-08-06T13:00:49;5.20;;;4.80;;
980;SDS011;479;53.514;9.994;2023-08-06T13:03:16;7.13;;;5.57;;
980;SDS011;479;53.514;9.994;2023-08-06T13:05:42;6.77;;;6.17;;
980;SDS011;479;53.514;9.994;2023-08-06T13:08:10;7.97;;;7.17;;
980;SDS011;479;53.514;9.994;2023-08-06T13:10:37;7.20;;;6.50;;
980;SDS011;479;53.514;9.994;2023-08-06T13:13:04;6.67;;;5.80;;
980;SDS011;479;53.514;9.994;2023-08-06T13:15:32;7.07;;;6.37;;
980;SDS011;479;53.514;9.994;2023-08-06T13:17:59;5.30;;;4.80;;
980;SDS011;479;53.514;9.994;2023-08-06T13:20:26;7.60;;;6.30;;
980;SDS011;479;53.514;9.994;2023-08-06T13:22:54;6.50;;;5.90;;
980;SDS011;479;53.514;9.994;2023-08-06T13:25:21;6.40;;;5.80;;
980;SDS011;479;53.514;9.994;2023-08-06T13:27:48;6.63;;;6.03;;
980;SDS011;479;53.514;9.994;2023-08-06T13:30:15;7.20;;;6.50;;
980;SDS011;479;53.514;9.994;2023-08-06T13:32:44;6.13;;;5.50;;
980;SDS011;479;53.514;9.994;2023-08-06T13:35:11;5.30;;;4.80;;
980;SDS011;479;53.514;9.994;2023-08-06T13:37:38;5.40;;;5.00;;
980;SDS011;479;53.514;9.994;2023-08-06T13:40:06;6.23;;;5.53;;
980;SDS011;479;53.514;9.994;2023-08-06T13:42:33;6.27;;;5.67;;
980;SDS011;479;53.514;9.994;2023-08-06T13:45:00;8.50;;;7.37;;
980;SDS011;479;53.514;9.994;2023-08-06T13:47:29;6.43;;;5.80;;
980;SDS011;479;53.514;9.994;2023-08-06T13:49:57;7.00;;;6.40;;
980;SDS011;479;53.514;9.994;2023-08-06T13:52:25;9.07;;;6.17;;
980;SDS011;479;53.514;9.994;2023-08-06T13:54:52;7.13;;;6.43;;
980;SDS011;479;53.514;9.994;2023-08-06T13:57:19;6.87;;;6.10;;
980;SDS011;479;53.514;9.994;2023-08-06T13:59:46;8.07;;;7.27;;
980;SDS011;479;53.514;9.994;2023-08-06T14:02:13;6.20;;;5.70;;
980;SDS011;479;53.514;9.994;2023-08-06T14:04:40;6.90;;;6.33;;
980;SDS011;479;53.514;9.994;2023-08-06T14:07:08;5.97;;;5.20;;
980;SDS011;479;53.514;9.994;2023-08-06T14:09:35;7.70;;;6.57;;
980;SDS011;479;53.514;9.994;2023-08-06T14:12:02;4.60;;;4.17;;
980;SDS011;479;53.514;9.994;2023-08-06T14:14:29;5.37;;;4.87;;
980;SDS011;479;53.514;9.994;2023-08-06T14:16:56;4.60;;;4.10;;
980;SDS011;479;53.514;9.994;2023-08-06T14:19:23;5.80;;;4.80;;
980;SDS011;479;53.514;9.994;2023-08-06T14:21:50;5.23;;;4.77;;
980;SDS011;479;53.514;9.994;2023-08-06T14:24:18;7.00;;;4.83;;
980;SDS011;479;53.514;9.994;2023-08-06T14:26:45;7.00;;;4.80;;
980;SDS011;479;53.514;9.994;2023-08-06T14:29:12;5.60;;;4.20;;
980;SDS011;479;53.514;9.994;2023-08-06T14:31:40;5.80;;;4.00;;
980;SDS011;479;53.514;9.994;2023-08-06T14:34:07;4.47;;;4.07;;
980;SDS011;479;53.514;9.994;2023-08-06T14:36:33;3.80;;;3.47;;
980;SDS011;479;53.514;9.994;2023-08-06T14:39:00;4.23;;;3.80;;
980;SDS011;479;53.514;9.994;2023-08-06T14:41:28;4.27;;;3.37;;
980;SDS011;479;53.514;9.994;2023-08-06T14:43:55;4.67;;;4.27;;
980;SDS011;479;53.514;9.994;2023-08-06T14:46:22;3.73;;;3.10;;
980;SDS011;479;53.514;9.994;2023-08-06T14:48:49;4.50;;;4.07;;
980;SDS011;479;53.514;9.994;2023-08-06T14:51:16;5.13;;;4.27;;
980;SDS011;479;53.514;9.994;2023-08-06T14:53:44;6.63;;;3.40;;
980;SDS011;479;53.514;9.994;2023-08-06T14:56:11;3.47;;;3.17;;
980;SDS011;479;53.514;9.994;2023-08-06T14:58:39;3.40;;;3.10;;
980;SDS011;479;53.514;9.994;2023-08-06T15:01:07;2.93;;;2.63;;
980;SDS011;479;53.514;9.994;2023-08-06T15:03:34;3.47;;;3.17;;
980;SDS011;479;53.514;9.994;2023-08-06T15:06:00;3.83;;;3.07;;
980;SDS011;479;53.514;9.994;2023-08-06T15:08:27;4.10;;;3.70;;
980;SDS011;479;53.514;9.994;2023-08-06T15:10:54;4.40;;;3.43;;
980;SDS011;479;53.514;9.994;2023-08-06T15:13:21;2.70;;;2.50;;
980;SDS011;479;53.514;9.994;2023-08-06T15:15:50;3.37;;;3.13;;
980;SDS011;479;53.514;9.994;2023-08-06T15:18:17;3.07;;;2.70;;
980;SDS011;479;53.514;9.994;2023-08-06T15:20:44;5.53;;;4.27;;
980;SDS011;479;53.514;9.994;2023-08-06T15:23:11;4.40;;;3.40;;
980;SDS011;479;53.514;9.994;2023-08-06T15:25:38;2.87;;;2.67;;
980;SDS011;479;53.514;9.994;2023-08-06T15:28:05;4.73;;;2.77;;
980;SDS011;479;53.514;9.994;2023-08-06T15:30:32;2.90;;;2.70;;
980;SDS011;479;53.514;9.994;2023-08-06T15:33:01;3.30;;;3.00;;
980;SDS011;479;53.514;9.994;2023-08-06T15:35:28;5.33;;;3.40;;
980;SDS011;479;53.514;9.994;2023-08-06T15:37:55;3.20;;;2.90;;
980;SDS011;479;53.514;9.994;2023-08-06T15:40:22;3.50;;;3.20;;
980;SDS011;479;53.514;9.994;2023-08-06T15:42:49;3.30;;;2.63;;
980;SDS011;479;53.514;9.994;2023-08-06T15:45:16;4.50;;;2.83;;
980;SDS011;479;53.514;9.994;2023-08-06T15:47:43;2.43;;;2.23;;
980;SDS011;479;53.514;9.994;2023-08-06T15:50:14;3.00;;;2.80;;
980;SDS011;479;53.514;9.994;2023-08-06T15:52:41;3.53;;;3.03;;
980;SDS011;479;53.514;9.994;2023-08-06T15:55:09;3.90;;;3.23;;